sensor_id;sensor_type;location;lat;lon;timestamp;temperature;humidity
46123;DHT22;31856;-35.404;149.120;2023-11-22T00:01:23;22.20;51.40
46123;DHT22;31856;-35.404;149.120;2023-11-22T00:03:54;22.00;52.50
46123;DHT22;31856;-35.404;149.120;2023-11-22T00:06:24;21.80;52.50
46123;DHT22;31856;-35.404;149.120;2023-11-22T00:08:53;21.60;52.70
46123;DHT22;31856;-35.404;149.120;2023-11-22T00:11:23;21.50;53.50
46123;DHT22;31856;-35.404;149.120;2023-11-22T00:13:53;21.50;53.60
46123;DHT22;31856;-35.404;149.120;2023-11-22T00:16:24;21.80;53.50
46123;DHT22;31856;-35.404;149.120;2023-11-22T00:18:54;22.20;52.50
46123;DHT22;31856;-35.404;149.120;2023-11-22T00:21:25;22.60;52.00
46123;DHT22;31856;-35.404;149.120;2023-11-22T00:23:55;22.90;50.40
46123;DHT22;31856;-35.404;149.120;2023-11-22T00:26:25;23.10;49.70
46123;DHT22;31856;-35.404;149.120;2023-11-22T02:28:21;26.20;41.70
46123;DHT22;31856;-35.404;149.120;2023-11-22T02:30:51;26.20;42.50
46123;DHT22;31856;-35.404;149.120;2023-11-22T02:33:21;26.40;41.70
46123;DHT22;31856;-35.404;149.120;2023-11-22T02:35:51;26.60;40.90
46123;DHT22;31856;-35.404;149.120;2023-11-22T02:38:20;26.60;40.00
46123;DHT22;31856;-35.404;149.120;2023-11-22T02:40:54;26.50;39.70
46123;DHT22;31856;-35.404;149.120;2023-11-22T02:43:24;26.70;39.60
46123;DHT22;31856;-35.404;149.120;2023-11-22T02:45:54;26.80;40.10
46123;DHT22;31856;-35.404;149.120;2023-11-22T02:48:24;26.60;39.50
46123;DHT22;31856;-35.404;149.120;2023-11-22T02:50:54;26.60;40.20
46123;DHT22;31856;-35.404;149.120;2023-11-22T02:53:25;26.30;39.80
46123;DHT22;31856;-35.404;149.120;2023-11-22T02:55:58;26.00;40.70
46123;DHT22;31856;-35.404;149.120;2023-11-22T02:58:29;26.20;40.00
46123;DHT22;31856;-35.404;149.120;2023-11-22T03:00:58;26.30;39.60
46123;DHT22;31856;-35.404;149.120;2023-11-22T03:03:28;26.60;40.20
46123;DHT22;31856;-35.404;149.120;2023-11-22T03:05:58;26.90;40.10
46123;DHT22;31856;-35.404;149.120;2023-11-22T03:08:29;27.20;38.70
46123;DHT22;31856;-35.404;149.120;2023-11-22T03:10:58;27.30;38.50
46123;DHT22;31856;-35.404;149.120;2023-11-22T03:13:28;27.60;38.90
46123;DHT22;31856;-35.404;149.120;2023-11-22T03:15:58;27.70;38.70
46123;DHT22;31856;-35.404;149.120;2023-11-22T03:18:28;27.80;38.30
46123;DHT22;31856;-35.404;149.120;2023-11-22T03:20:58;28.00;37.60
46123;DHT22;31856;-35.404;149.120;2023-11-22T03:23:30;28.20;37.90
46123;DHT22;31856;-35.404;149.120;2023-11-22T03:26:00;28.30;37.30
46123;DHT22;31856;-35.404;149.120;2023-11-22T03:28:30;28.20;36.70
46123;DHT22;31856;-35.404;149.120;2023-11-22T03:30:59;27.80;35.90
46123;DHT22;31856;-35.404;149.120;2023-11-22T03:33:31;27.70;36.20
46123;DHT22;31856;-35.404;149.120;2023-11-22T03:36:03;27.70;37.40
46123;DHT22;31856;-35.404;149.120;2023-11-22T03:38:33;28.00;36.90
46123;DHT22;31856;-35.404;149.120;2023-11-22T03:41:03;27.90;36.30
46123;DHT22;31856;-35.404;149.120;2023-11-22T03:43:34;27.90;36.30
46123;DHT22;31856;-35.404;149.120;2023-11-22T03:46:03;28.10;36.10
46123;DHT22;31856;-35.404;149.120;2023-11-22T03:48:33;28.20;35.90
46123;DHT22;31856;-35.404;149.120;2023-11-22T03:51:03;28.00;35.10
46123;DHT22;31856;-35.404;149.120;2023-11-22T03:53:34;27.70;35.90
46123;DHT22;31856;-35.404;149.120;2023-11-22T03:56:04;27.30;36.20
46123;DHT22;31856;-35.404;149.120;2023-11-22T03:58:35;27.70;36.60
46123;DHT22;31856;-35.404;149.120;2023-11-22T04:01:06;27.90;35.10
46123;DHT22;31856;-35.404;149.120;2023-11-22T04:03:36;27.80;34.90
46123;DHT22;31856;-35.404;149.120;2023-11-22T04:06:06;27.70;35.90
46123;DHT22;31856;-35.404;149.120;2023-11-22T04:08:37;27.50;35.90
46123;DHT22;31856;-35.404;149.120;2023-11-22T04:11:06;27.30;36.40
46123;DHT22;31856;-35.404;149.120;2023-11-22T04:13:36;27.20;37.40
46123;DHT22;31856;-35.404;149.120;2023-11-22T04:16:06;27.10;37.80
46123;DHT22;31856;-35.404;149.120;2023-11-22T04:18:42;27.20;37.30
46123;DHT22;31856;-35.404;149.120;2023-11-22T04:21:13;27.10;36.30
46123;DHT22;31856;-35.404;149.120;2023-11-22T04:23:42;27.00;36.30
46123;DHT22;31856;-35.404;149.120;2023-11-22T04:26:12;26.80;37.10
46123;DHT22;31856;-35.404;149.120;2023-11-22T04:28:41;26.70;37.90
46123;DHT22;31856;-35.404;149.120;2023-11-22T04:31:11;26.60;39.80
46123;DHT22;31856;-35.404;149.120;2023-11-22T04:33:41;26.50;41.20
46123;DHT22;31856;-35.404;149.120;2023-11-22T04:36:11;26.40;41.30
46123;DHT22;31856;-35.404;149.120;2023-11-22T04:38:40;26.30;41.40
46123;DHT22;31856;-35.404;149.120;2023-11-22T04:41:11;26.30;41.30
46123;DHT22;31856;-35.404;149.120;2023-11-22T04:43:41;26.30;41.50
46123;DHT22;31856;-35.404;149.120;2023-11-22T04:46:11;26.20;41.40
46123;DHT22;31856;-35.404;149.120;2023-11-22T04:48:41;26.30;40.90
46123;DHT22;31856;-35.404;149.120;2023-11-22T04:51:14;26.40;41.30
46123;DHT22;31856;-35.404;149.120;2023-11-22T04:53:45;26.50;41.50
46123;DHT22;31856;-35.404;149.120;2023-11-22T04:56:14;26.70;41.40
46123;DHT22;31856;-35.404;149.120;2023-11-22T04:58:45;26.70;41.20
46123;DHT22;31856;-35.404;149.120;2023-11-22T05:01:15;26.70;41.90
46123;DHT22;31856;-35.404;149.120;2023-11-22T05:03:47;26.50;42.30
46123;DHT22;31856;-35.404;149.120;2023-11-22T05:06:18;26.40;42.50
46123;DHT22;31856;-35.404;149.120;2023-11-22T05:57:56;25.50;46.70
46123;DHT22;31856;-35.404;149.120;2023-11-22T06:00:26;25.50;46.80
46123;DHT22;31856;-35.404;149.120;2023-11-22T06:02:55;25.50;46.90
46123;DHT22;31856;-35.404;149.120;2023-11-22T06:05:25;25.50;46.50
46123;DHT22;31856;-35.404;149.120;2023-11-22T06:07:54;25.40;46.30
46123;DHT22;31856;-35.404;149.120;2023-11-22T06:10:25;25.60;46.50
46123;DHT22;31856;-35.404;149.120;2023-11-22T06:12:55;25.60;46.40
46123;DHT22;31856;-35.404;149.120;2023-11-22T06:15:25;25.60;46.20
46123;DHT22;31856;-35.404;149.120;2023-11-22T06:17:57;25.50;46.40
46123;DHT22;31856;-35.404;149.120;2023-11-22T06:20:27;25.40;46.60
46123;DHT22;31856;-35.404;149.120;2023-11-22T06:22:57;25.40;46.90
46123;DHT22;31856;-35.404;149.120;2023-11-22T06:25:26;25.30;47.10
46123;DHT22;31856;-35.404;149.120;2023-11-22T06:27:56;25.20;47.90
46123;DHT22;31856;-35.404;149.120;2023-11-22T06:30:28;25.00;48.50
46123;DHT22;31856;-35.404;149.120;2023-11-22T06:32:59;24.90;48.90
46123;DHT22;31856;-35.404;149.120;2023-11-22T06:35:30;24.80;49.10
46123;DHT22;31856;-35.404;149.120;2023-11-22T06:37:59;24.70;49.30
46123;DHT22;31856;-35.404;149.120;2023-11-22T06:40:29;24.50;49.50
46123;DHT22;31856;-35.404;149.120;2023-11-22T06:43:01;24.40;50.00
46123;DHT22;31856;-35.404;149.120;2023-11-22T06:45:33;24.30;50.00
46123;DHT22;31856;-35.404;149.120;2023-11-22T06:48:03;24.20;50.10
46123;DHT22;31856;-35.404;149.120;2023-11-22T06:50:33;24.20;50.50
46123;DHT22;31856;-35.404;149.120;2023-11-22T06:53:02;24.10;51.10
46123;DHT22;31856;-35.404;149.120;2023-11-22T06:55:34;24.00;51.70
46123;DHT22;31856;-35.404;149.120;2023-11-22T07:04:33;23.70;53.20
46123;DHT22;31856;-35.404;149.120;2023-11-22T07:07:03;23.70;53.40
46123;DHT22;31856;-35.404;149.120;2023-11-22T07:09:33;23.70;53.00
46123;DHT22;31856;-35.404;149.120;2023-11-22T07:12:02;23.60;53.00
46123;DHT22;31856;-35.404;149.120;2023-11-22T07:14:36;23.60;53.00
46123;DHT22;31856;-35.404;149.120;2023-11-22T07:17:05;23.50;53.40
46123;DHT22;31856;-35.404;149.120;2023-11-22T07:19:39;23.50;53.70
46123;DHT22;31856;-35.404;149.120;2023-11-22T07:22:15;23.40;53.90
46123;DHT22;31856;-35.404;149.120;2023-11-22T07:24:45;23.30;54.00
46123;DHT22;31856;-35.404;149.120;2023-11-22T07:27:20;23.30;54.10
46123;DHT22;31856;-35.404;149.120;2023-11-22T07:29:51;23.20;54.20
46123;DHT22;31856;-35.404;149.120;2023-11-22T07:32:21;23.20;54.50
46123;DHT22;31856;-35.404;149.120;2023-11-22T07:34:51;23.10;55.20
46123;DHT22;31856;-35.404;149.120;2023-11-22T07:37:24;23.00;55.40
46123;DHT22;31856;-35.404;149.120;2023-11-22T07:39:54;23.00;55.50
46123;DHT22;31856;-35.404;149.120;2023-11-22T07:42:29;22.80;55.70
46123;DHT22;31856;-35.404;149.120;2023-11-22T07:44:58;22.80;55.90
46123;DHT22;31856;-35.404;149.120;2023-11-22T07:47:31;22.80;56.10
46123;DHT22;31856;-35.404;149.120;2023-11-22T07:50:01;22.70;56.20
46123;DHT22;31856;-35.404;149.120;2023-11-22T07:52:32;22.60;56.40
46123;DHT22;31856;-35.404;149.120;2023-11-22T07:55:01;22.50;57.20
46123;DHT22;31856;-35.404;149.120;2023-11-22T07:57:31;22.50;57.00
46123;DHT22;31856;-35.404;149.120;2023-11-22T08:00:02;22.30;57.50
46123;DHT22;31856;-35.404;149.120;2023-11-22T08:02:37;22.30;57.50
46123;DHT22;31856;-35.404;149.120;2023-11-22T08:05:12;22.30;57.90
46123;DHT22;31856;-35.404;149.120;2023-11-22T08:07:44;22.20;58.80
46123;DHT22;31856;-35.404;149.120;2023-11-22T08:10:17;22.10;59.20
46123;DHT22;31856;-35.404;149.120;2023-11-22T08:12:49;22.00;59.40
46123;DHT22;31856;-35.404;149.120;2023-11-22T08:15:22;22.00;59.50
46123;DHT22;31856;-35.404;149.120;2023-11-22T08:17:52;21.90;59.50
46123;DHT22;31856;-35.404;149.120;2023-11-22T08:20:23;21.90;60.20
46123;DHT22;31856;-35.404;149.120;2023-11-22T08:22:54;21.80;60.10
46123;DHT22;31856;-35.404;149.120;2023-11-22T08:25:24;21.80;60.00
46123;DHT22;31856;-35.404;149.120;2023-11-22T08:27:57;21.70;60.20
46123;DHT22;31856;-35.404;149.120;2023-11-22T08:30:26;21.60;60.80
46123;DHT22;31856;-35.404;149.120;2023-11-22T08:32:56;21.60;62.40
46123;DHT22;31856;-35.404;149.120;2023-11-22T08:35:28;21.60;63.20
46123;DHT22;31856;-35.404;149.120;2023-11-22T08:37:59;21.50;64.00
46123;DHT22;31856;-35.404;149.120;2023-11-22T08:40:32;21.40;64.10
46123;DHT22;31856;-35.404;149.120;2023-11-22T08:43:06;21.30;64.30
46123;DHT22;31856;-35.404;149.120;2023-11-22T08:45:36;21.30;64.30
46123;DHT22;31856;-35.404;149.120;2023-11-22T08:48:05;21.30;64.40
46123;DHT22;31856;-35.404;149.120;2023-11-22T08:50:35;21.30;63.80
46123;DHT22;31856;-35.404;149.120;2023-11-22T08:53:10;21.20;64.50
46123;DHT22;31856;-35.404;149.120;2023-11-22T08:55:40;21.20;63.90
46123;DHT22;31856;-35.404;149.120;2023-11-22T08:58:10;21.00;63.90
46123;DHT22;31856;-35.404;149.120;2023-11-22T09:00:40;21.00;64.10
46123;DHT22;31856;-35.404;149.120;2023-11-22T09:03:14;20.90;64.00
46123;DHT22;31856;-35.404;149.120;2023-11-22T09:05:46;21.00;64.00
46123;DHT22;31856;-35.404;149.120;2023-11-22T09:08:18;20.80;64.10
46123;DHT22;31856;-35.404;149.120;2023-11-22T09:10:55;20.90;63.80
46123;DHT22;31856;-35.404;149.120;2023-11-22T09:13:25;20.80;64.30
46123;DHT22;31856;-35.404;149.120;2023-11-22T09:15:54;20.80;63.90
46123;DHT22;31856;-35.404;149.120;2023-11-22T09:18:26;20.80;63.70
46123;DHT22;31856;-35.404;149.120;2023-11-22T09:20:55;20.70;63.90
46123;DHT22;31856;-35.404;149.120;2023-11-22T09:23:25;20.70;64.00
46123;DHT22;31856;-35.404;149.120;2023-11-22T09:25:56;20.50;64.30
46123;DHT22;31856;-35.404;149.120;2023-11-22T09:28:25;20.60;64.20
46123;DHT22;31856;-35.404;149.120;2023-11-22T09:30:56;20.50;64.10
46123;DHT22;31856;-35.404;149.120;2023-11-22T09:33:34;20.50;64.00
46123;DHT22;31856;-35.404;149.120;2023-11-22T09:36:05;20.50;63.90
46123;DHT22;31856;-35.404;149.120;2023-11-22T09:38:38;20.50;63.60
46123;DHT22;31856;-35.404;149.120;2023-11-22T09:41:07;20.50;63.70
46123;DHT22;31856;-35.404;149.120;2023-11-22T09:43:39;20.40;63.80
46123;DHT22;31856;-35.404;149.120;2023-11-22T09:46:08;20.40;64.10
46123;DHT22;31856;-35.404;149.120;2023-11-22T09:48:41;20.40;64.10
46123;DHT22;31856;-35.404;149.120;2023-11-22T09:51:19;20.40;63.90
46123;DHT22;31856;-35.404;149.120;2023-11-22T09:53:54;20.30;64.00
46123;DHT22;31856;-35.404;149.120;2023-11-22T09:56:25;20.30;64.10
46123;DHT22;31856;-35.404;149.120;2023-11-22T09:58:55;20.30;64.10
46123;DHT22;31856;-35.404;149.120;2023-11-22T10:01:26;20.30;64.40
46123;DHT22;31856;-35.404;149.120;2023-11-22T10:04:06;20.20;64.50
46123;DHT22;31856;-35.404;149.120;2023-11-22T10:06:37;20.30;64.50
46123;DHT22;31856;-35.404;149.120;2023-11-22T10:09:09;20.20;64.20
46123;DHT22;31856;-35.404;149.120;2023-11-22T10:11:39;20.20;64.30
46123;DHT22;31856;-35.404;149.120;2023-11-22T10:14:21;20.20;64.40
46123;DHT22;31856;-35.404;149.120;2023-11-22T10:16:59;20.30;64.00
46123;DHT22;31856;-35.404;149.120;2023-11-22T10:19:29;20.20;64.40
46123;DHT22;31856;-35.404;149.120;2023-11-22T10:22:08;20.20;64.40
46123;DHT22;31856;-35.404;149.120;2023-11-22T10:24:37;20.20;64.50
46123;DHT22;31856;-35.404;149.120;2023-11-22T10:27:07;20.10;64.70
46123;DHT22;31856;-35.404;149.120;2023-11-22T10:29:37;20.10;64.60
46123;DHT22;31856;-35.404;149.120;2023-11-22T10:32:07;20.10;65.00
46123;DHT22;31856;-35.404;149.120;2023-11-22T10:34:37;20.10;65.20
46123;DHT22;31856;-35.404;149.120;2023-11-22T10:37:07;20.00;65.20
46123;DHT22;31856;-35.404;149.120;2023-11-22T10:39:38;20.00;65.20
46123;DHT22;31856;-35.404;149.120;2023-11-22T10:42:10;20.00;65.20
46123;DHT22;31856;-35.404;149.120;2023-11-22T10:44:41;19.90;65.60
46123;DHT22;31856;-35.404;149.120;2023-11-22T10:47:10;19.90;65.60
46123;DHT22;31856;-35.404;149.120;2023-11-22T10:49:43;19.80;65.50
46123;DHT22;31856;-35.404;149.120;2023-11-22T10:52:13;19.80;65.40
46123;DHT22;31856;-35.404;149.120;2023-11-22T10:54:46;19.80;65.70
46123;DHT22;31856;-35.404;149.120;2023-11-22T10:57:19;19.80;65.60
46123;DHT22;31856;-35.404;149.120;2023-11-22T10:59:54;19.80;65.50
46123;DHT22;31856;-35.404;149.120;2023-11-22T11:02:24;19.80;65.80
46123;DHT22;31856;-35.404;149.120;2023-11-22T11:05:05;19.80;65.70
46123;DHT22;31856;-35.404;149.120;2023-11-22T11:07:48;19.80;66.20
46123;DHT22;31856;-35.404;149.120;2023-11-22T11:10:19;19.70;66.20
46123;DHT22;31856;-35.404;149.120;2023-11-22T11:12:52;19.70;66.70
46123;DHT22;31856;-35.404;149.120;2023-11-22T11:43:20;19.50;65.80
46123;DHT22;31856;-35.404;149.120;2023-11-22T11:45:50;19.40;66.10
46123;DHT22;31856;-35.404;149.120;2023-11-22T11:48:23;19.30;65.90
46123;DHT22;31856;-35.404;149.120;2023-11-22T11:50:53;19.40;65.60
46123;DHT22;31856;-35.404;149.120;2023-11-22T11:53:23;19.40;65.30
46123;DHT22;31856;-35.404;149.120;2023-11-22T11:55:53;19.40;65.20
46123;DHT22;31856;-35.404;149.120;2023-11-22T11:58:23;19.40;65.30
46123;DHT22;31856;-35.404;149.120;2023-11-22T12:00:54;19.30;65.20
46123;DHT22;31856;-35.404;149.120;2023-11-22T12:03:23;19.30;65.20
46123;DHT22;31856;-35.404;149.120;2023-11-22T12:05:53;19.30;65.30
46123;DHT22;31856;-35.404;149.120;2023-11-22T12:08:23;19.30;65.60
46123;DHT22;31856;-35.404;149.120;2023-11-22T12:10:55;19.30;65.70
46123;DHT22;31856;-35.404;149.120;2023-11-22T12:13:25;19.20;65.50
46123;DHT22;31856;-35.404;149.120;2023-11-22T12:15:55;19.20;65.70
46123;DHT22;31856;-35.404;149.120;2023-11-22T12:18:24;19.10;66.20
46123;DHT22;31856;-35.404;149.120;2023-11-22T12:20:55;19.00;66.10
46123;DHT22;31856;-35.404;149.120;2023-11-22T12:23:26;19.00;66.00
46123;DHT22;31856;-35.404;149.120;2023-11-22T12:25:59;19.00;66.10
46123;DHT22;31856;-35.404;149.120;2023-11-22T12:28:29;19.00;66.50
46123;DHT22;31856;-35.404;149.120;2023-11-22T12:31:10;19.00;66.00
46123;DHT22;31856;-35.404;149.120;2023-11-22T12:33:40;18.90;66.40
46123;DHT22;31856;-35.404;149.120;2023-11-22T12:36:10;18.90;66.00
46123;DHT22;31856;-35.404;149.120;2023-11-22T12:38:45;18.90;65.90
46123;DHT22;31856;-35.404;149.120;2023-11-22T12:44:11;18.90;65.90
46123;DHT22;31856;-35.404;149.120;2023-11-22T12:46:59;18.90;65.80
46123;DHT22;31856;-35.404;149.120;2023-11-22T12:49:33;18.80;66.30
46123;DHT22;31856;-35.404;149.120;2023-11-22T12:52:12;18.80;65.90
46123;DHT22;31856;-35.404;149.120;2023-11-22T12:54:42;18.80;66.30
46123;DHT22;31856;-35.404;149.120;2023-11-22T12:57:15;18.80;66.30
46123;DHT22;31856;-35.404;149.120;2023-11-22T12:59:48;18.80;66.60
46123;DHT22;31856;-35.404;149.120;2023-11-22T13:02:18;18.80;66.50
46123;DHT22;31856;-35.404;149.120;2023-11-22T13:04:48;18.70;66.50
46123;DHT22;31856;-35.404;149.120;2023-11-22T13:07:18;18.70;66.80
46123;DHT22;31856;-35.404;149.120;2023-11-22T13:09:48;18.70;66.50
46123;DHT22;31856;-35.404;149.120;2023-11-22T13:12:18;18.60;66.90
46123;DHT22;31856;-35.404;149.120;2023-11-22T13:14:48;18.60;66.70
46123;DHT22;31856;-35.404;149.120;2023-11-22T13:17:19;18.60;66.60
46123;DHT22;31856;-35.404;149.120;2023-11-22T13:19:49;18.60;66.60
46123;DHT22;31856;-35.404;149.120;2023-11-22T13:22:18;18.60;66.50
46123;DHT22;31856;-35.404;149.120;2023-11-22T13:24:49;18.60;66.70
46123;DHT22;31856;-35.404;149.120;2023-11-22T13:27:19;18.50;66.80
46123;DHT22;31856;-35.404;149.120;2023-11-22T13:29:49;18.50;66.70
46123;DHT22;31856;-35.404;149.120;2023-11-22T13:32:21;18.50;66.80
46123;DHT22;31856;-35.404;149.120;2023-11-22T13:34:53;18.50;66.70
46123;DHT22;31856;-35.404;149.120;2023-11-22T13:37:24;18.50;66.90
46123;DHT22;31856;-35.404;149.120;2023-11-22T13:39:53;18.40;66.80
46123;DHT22;31856;-35.404;149.120;2023-11-22T13:42:24;18.40;67.10
46123;DHT22;31856;-35.404;149.120;2023-11-22T14:06:09;18.00;68.50
46123;DHT22;31856;-35.404;149.120;2023-11-22T14:08:42;17.90;68.90
46123;DHT22;31856;-35.404;149.120;2023-11-22T14:11:13;17.80;68.70
46123;DHT22;31856;-35.404;149.120;2023-11-22T14:13:42;17.80;68.90
46123;DHT22;31856;-35.404;149.120;2023-11-22T14:16:12;17.80;69.00
46123;DHT22;31856;-35.404;149.120;2023-11-22T14:18:43;17.80;69.10
46123;DHT22;31856;-35.404;149.120;2023-11-22T14:21:14;17.70;69.40
46123;DHT22;31856;-35.404;149.120;2023-11-22T14:23:45;17.70;69.30
46123;DHT22;31856;-35.404;149.120;2023-11-22T14:26:14;17.60;69.60
46123;DHT22;31856;-35.404;149.120;2023-11-22T14:28:43;17.50;69.50
46123;DHT22;31856;-35.404;149.120;2023-11-22T14:31:14;17.60;69.50
46123;DHT22;31856;-35.404;149.120;2023-11-22T14:33:44;17.50;69.70
46123;DHT22;31856;-35.404;149.120;2023-11-22T14:36:15;17.40;69.90
46123;DHT22;31856;-35.404;149.120;2023-11-22T14:38:45;17.40;70.00
46123;DHT22;31856;-35.404;149.120;2023-11-22T14:41:22;17.40;70.20
46123;DHT22;31856;-35.404;149.120;2023-11-22T14:43:52;17.40;69.90
46123;DHT22;31856;-35.404;149.120;2023-11-22T14:46:21;17.30;70.10
46123;DHT22;31856;-35.404;149.120;2023-11-22T14:48:51;17.30;70.40
46123;DHT22;31856;-35.404;149.120;2023-11-22T14:51:21;17.30;70.30
46123;DHT22;31856;-35.404;149.120;2023-11-22T14:53:52;17.20;70.40
46123;DHT22;31856;-35.404;149.120;2023-11-22T14:56:22;17.10;70.40
46123;DHT22;31856;-35.404;149.120;2023-11-22T14:58:52;17.10;70.40
46123;DHT22;31856;-35.404;149.120;2023-11-22T15:01:24;17.10;70.10
46123;DHT22;31856;-35.404;149.120;2023-11-22T15:03:54;17.00;70.00
46123;DHT22;31856;-35.404;149.120;2023-11-22T15:15:37;16.90;70.40
46123;DHT22;31856;-35.404;149.120;2023-11-22T15:18:07;16.80;70.60
46123;DHT22;31856;-35.404;149.120;2023-11-22T15:20:38;16.80;70.60
46123;DHT22;31856;-35.404;149.120;2023-11-22T15:23:08;16.80;70.60
46123;DHT22;31856;-35.404;149.120;2023-11-22T15:25:39;16.70;70.40
46123;DHT22;31856;-35.404;149.120;2023-11-22T15:28:09;16.70;70.50
46123;DHT22;31856;-35.404;149.120;2023-11-22T15:30:38;16.70;70.40
46123;DHT22;31856;-35.404;149.120;2023-11-22T15:33:08;16.60;70.50
46123;DHT22;31856;-35.404;149.120;2023-11-22T15:35:38;16.60;70.70
46123;DHT22;31856;-35.404;149.120;2023-11-22T15:38:07;16.60;70.60
46123;DHT22;31856;-35.404;149.120;2023-11-22T15:40:37;16.40;70.80
46123;DHT22;31856;-35.404;149.120;2023-11-22T15:43:08;16.40;71.00
46123;DHT22;31856;-35.404;149.120;2023-11-22T15:45:37;16.40;71.10
46123;DHT22;31856;-35.404;149.120;2023-11-22T15:48:09;16.40;70.80
46123;DHT22;31856;-35.404;149.120;2023-11-22T15:50:41;16.30;70.60
46123;DHT22;31856;-35.404;149.120;2023-11-22T15:53:11;16.30;70.80
46123;DHT22;31856;-35.404;149.120;2023-11-22T15:55:42;16.30;71.10
46123;DHT22;31856;-35.404;149.120;2023-11-22T15:58:12;16.30;70.90
46123;DHT22;31856;-35.404;149.120;2023-11-22T16:00:43;16.30;71.00
46123;DHT22;31856;-35.404;149.120;2023-11-22T16:03:13;16.30;70.90
46123;DHT22;31856;-35.404;149.120;2023-11-22T16:05:46;16.30;70.40
46123;DHT22;31856;-35.404;149.120;2023-11-22T16:08:17;16.30;70.50
46123;DHT22;31856;-35.404;149.120;2023-11-22T16:10:46;16.20;70.90
46123;DHT22;31856;-35.404;149.120;2023-11-22T16:13:16;16.20;70.60
46123;DHT22;31856;-35.404;149.120;2023-11-22T16:44:04;16.10;72.40
46123;DHT22;31856;-35.404;149.120;2023-11-22T16:46:34;16.10;72.60
46123;DHT22;31856;-35.404;149.120;2023-11-22T16:49:05;16.00;72.50
46123;DHT22;31856;-35.404;149.120;2023-11-22T16:51:38;16.10;72.50
46123;DHT22;31856;-35.404;149.120;2023-11-22T16:54:07;16.00;72.50
46123;DHT22;31856;-35.404;149.120;2023-11-22T16:56:38;16.00;72.20
46123;DHT22;31856;-35.404;149.120;2023-11-22T16:59:08;16.00;72.60
46123;DHT22;31856;-35.404;149.120;2023-11-22T17:01:39;15.90;72.50
46123;DHT22;31856;-35.404;149.120;2023-11-22T17:04:09;15.90;72.30
46123;DHT22;31856;-35.404;149.120;2023-11-22T17:06:39;15.90;72.20
46123;DHT22;31856;-35.404;149.120;2023-11-22T17:09:08;15.90;72.40
46123;DHT22;31856;-35.404;149.120;2023-11-22T17:11:41;15.90;72.50
46123;DHT22;31856;-35.404;149.120;2023-11-22T17:14:12;15.90;72.30
46123;DHT22;31856;-35.404;149.120;2023-11-22T17:16:41;15.80;72.40
46123;DHT22;31856;-35.404;149.120;2023-11-22T17:19:11;15.80;72.50
46123;DHT22;31856;-35.404;149.120;2023-11-22T17:21:41;15.80;72.50
46123;DHT22;31856;-35.404;149.120;2023-11-22T17:24:10;15.80;72.40
46123;DHT22;31856;-35.404;149.120;2023-11-22T17:26:40;15.80;72.40
46123;DHT22;31856;-35.404;149.120;2023-11-22T17:29:09;15.80;72.50
46123;DHT22;31856;-35.404;149.120;2023-11-22T17:31:39;15.80;72.60
46123;DHT22;31856;-35.404;149.120;2023-11-22T17:34:09;15.80;72.80
46123;DHT22;31856;-35.404;149.120;2023-11-22T17:36:39;15.70;72.70
46123;DHT22;31856;-35.404;149.120;2023-11-22T17:39:09;15.70;72.80
46123;DHT22;31856;-35.404;149.120;2023-11-22T18:05:43;15.50;73.20
46123;DHT22;31856;-35.404;149.120;2023-11-22T18:08:13;15.40;73.60
46123;DHT22;31856;-35.404;149.120;2023-11-22T18:10:45;15.40;73.70
46123;DHT22;31856;-35.404;149.120;2023-11-22T18:13:15;15.40;73.80
46123;DHT22;31856;-35.404;149.120;2023-11-22T18:15:44;15.50;74.00
46123;DHT22;31856;-35.404;149.120;2023-11-22T18:18:14;15.50;73.90
46123;DHT22;31856;-35.404;149.120;2023-11-22T18:20:44;15.60;73.50
46123;DHT22;31856;-35.404;149.120;2023-11-22T18:23:13;15.50;73.50
46123;DHT22;31856;-35.404;149.120;2023-11-22T18:25:43;15.60;73.60
46123;DHT22;31856;-35.404;149.120;2023-11-22T18:28:13;15.60;73.60
46123;DHT22;31856;-35.404;149.120;2023-11-22T18:30:44;15.60;73.60
46123;DHT22;31856;-35.404;149.120;2023-11-22T18:33:13;15.60;73.50
46123;DHT22;31856;-35.404;149.120;2023-11-22T18:35:43;15.50;73.80
46123;DHT22;31856;-35.404;149.120;2023-11-22T18:38:12;15.50;73.80
46123;DHT22;31856;-35.404;149.120;2023-11-22T18:40:43;15.60;73.80
46123;DHT22;31856;-35.404;149.120;2023-11-22T18:43:13;15.60;73.70
46123;DHT22;31856;-35.404;149.120;2023-11-22T18:45:44;15.60;73.50
46123;DHT22;31856;-35.404;149.120;2023-11-22T18:48:17;15.60;74.00
46123;DHT22;31856;-35.404;149.120;2023-11-22T18:50:47;15.60;73.80
46123;DHT22;31856;-35.404;149.120;2023-11-22T18:53:16;15.50;73.90
46123;DHT22;31856;-35.404;149.120;2023-11-22T18:55:46;15.60;73.90
46123;DHT22;31856;-35.404;149.120;2023-11-22T18:58:15;15.50;74.00
46123;DHT22;31856;-35.404;149.120;2023-11-22T19:00:45;15.50;74.00
46123;DHT22;31856;-35.404;149.120;2023-11-22T19:03:15;15.50;74.00
46123;DHT22;31856;-35.404;149.120;2023-11-22T19:08:30;15.50;73.80
46123;DHT22;31856;-35.404;149.120;2023-11-22T19:11:00;15.60;73.80
46123;DHT22;31856;-35.404;149.120;2023-11-22T19:13:30;15.60;74.00
46123;DHT22;31856;-35.404;149.120;2023-11-22T19:16:02;15.60;73.70
46123;DHT22;31856;-35.404;149.120;2023-11-22T19:18:32;15.60;73.90
46123;DHT22;31856;-35.404;149.120;2023-11-22T19:21:02;15.60;74.00
46123;DHT22;31856;-35.404;149.120;2023-11-22T19:23:33;15.60;74.30
46123;DHT22;31856;-35.404;149.120;2023-11-22T19:26:03;15.60;74.30
46123;DHT22;31856;-35.404;149.120;2023-11-22T19:28:33;15.60;74.50
46123;DHT22;31856;-35.404;149.120;2023-11-22T19:31:03;15.60;74.60
46123;DHT22;31856;-35.404;149.120;2023-11-22T19:33:37;15.50;74.60
46123;DHT22;31856;-35.404;149.120;2023-11-22T19:36:07;15.60;74.60
46123;DHT22;31856;-35.404;149.120;2023-11-22T19:38:39;15.70;74.60
46123;DHT22;31856;-35.404;149.120;2023-11-22T19:41:10;15.70;74.40
46123;DHT22;31856;-35.404;149.120;2023-11-22T19:43:39;15.80;74.20
46123;DHT22;31856;-35.404;149.120;2023-11-22T19:46:09;15.80;74.10
46123;DHT22;31856;-35.404;149.120;2023-11-22T19:48:39;15.80;74.00
46123;DHT22;31856;-35.404;149.120;2023-11-22T19:51:10;15.90;74.20
46123;DHT22;31856;-35.404;149.120;2023-11-22T19:53:42;15.90;74.30
46123;DHT22;31856;-35.404;149.120;2023-11-22T19:56:12;15.90;74.00
46123;DHT22;31856;-35.404;149.120;2023-11-22T19:58:43;16.00;73.30
46123;DHT22;31856;-35.404;149.120;2023-11-22T20:01:13;16.10;73.00